createdAt,value
2023-05-23T00:01:32.412Z,23.00
2023-05-23T00:04:02.006Z,23.67
2023-05-23T00:06:30.325Z,25.73
2023-05-23T00:08:58.543Z,23.75
2023-05-23T00:11:29.087Z,23.02
2023-05-23T00:13:57.571Z,23.90
2023-05-23T00:16:25.830Z,25.67
2023-05-23T00:18:57.605Z,28.02
2023-05-23T00:21:27.426Z,27.42
2023-05-23T00:23:55.390Z,27.08
2023-05-23T00:26:24.178Z,29.98
2023-05-23T00:28:52.366Z,29.52
2023-05-23T00:31:20.385Z,26.83
2023-05-23T00:33:48.413Z,29.45
2023-05-23T00:36:18.405Z,29.15
2023-05-23T00:38:47.111Z,34.10
2023-05-23T00:41:15.148Z,30.70
2023-05-23T00:43:43.268Z,30.75
2023-05-23T00:46:12.410Z,30.92
2023-05-23T00:48:40.656Z,33.25
2023-05-23T00:51:08.876Z,34.60
2023-05-23T00:53:38.441Z,31.55
2023-05-23T00:56:06.992Z,36.28
2023-05-23T00:58:36.064Z,42.55
2023-05-23T01:01:04.174Z,39.35
2023-05-23T01:03:32.290Z,41.42
2023-05-23T01:06:00.376Z,42.60
2023-05-23T01:08:30.677Z,47.72
2023-05-23T01:11:05.858Z,49.08
2023-05-23T01:13:41.931Z,53.70
2023-05-23T01:16:15.352Z,57.90
2023-05-23T01:18:50.753Z,57.08
2023-05-23T01:21:20.864Z,58.75
2023-05-23T01:24:12.255Z,64.15
2023-05-23T01:26:56.109Z,63.67
2023-05-23T01:29:27.965Z,64.45
2023-05-23T01:31:59.908Z,62.08
2023-05-23T01:34:27.949Z,62.65
2023-05-23T01:36:56.732Z,61.25
2023-05-23T01:39:24.973Z,62.33
2023-05-23T01:41:54.749Z,60.55
2023-05-23T01:44:23.349Z,56.97
2023-05-23T01:46:52.709Z,55.58
2023-05-23T01:49:24.405Z,58.03
2023-05-23T01:51:52.619Z,67.68
2023-05-23T01:54:20.811Z,60.67
2023-05-23T01:56:49.621Z,55.53
2023-05-23T01:59:17.777Z,54.95
2023-05-23T02:01:45.902Z,53.78
2023-05-23T02:04:15.811Z,57.75
2023-05-23T02:06:43.848Z,55.70
2023-05-23T02:09:12.052Z,53.30
2023-05-23T02:11:40.074Z,53.15
2023-05-23T02:14:08.520Z,59.67
2023-05-23T02:16:36.720Z,65.10
2023-05-23T02:19:05.244Z,60.30
2023-05-23T02:21:35.586Z,70.88
2023-05-23T02:24:03.898Z,60.70
2023-05-23T02:26:31.912Z,70.05
2023-05-23T02:28:59.946Z,67.65
2023-05-23T02:31:28.054Z,74.95
2023-05-23T02:33:56.154Z,80.53
2023-05-23T02:36:24.227Z,78.47
2023-05-23T02:38:53.552Z,74.78
2023-05-23T02:41:21.473Z,71.53
2023-05-23T02:43:49.431Z,68.85
2023-05-23T02:46:17.399Z,63.13
2023-05-23T02:48:45.648Z,79.55
2023-05-23T02:51:14.584Z,73.10
2023-05-23T02:53:42.603Z,83.25
2023-05-23T02:56:13.469Z,75.55
2023-05-23T02:58:41.522Z,75.63
2023-05-23T03:01:09.585Z,90.22
2023-05-23T03:03:37.708Z,99.53
2023-05-23T03:06:06.308Z,108.88
2023-05-23T03:08:34.440Z,112.57
2023-05-23T03:11:02.403Z,120.05
2023-05-23T03:13:31.748Z,120.55
2023-05-23T03:15:59.737Z,115.68
2023-05-23T03:18:27.678Z,130.57
2023-05-23T03:20:55.689Z,123.72
2023-05-23T03:23:23.656Z,113.65
2023-05-23T03:25:51.719Z,109.47
2023-05-23T03:28:19.688Z,110.68
2023-05-23T03:30:48.988Z,101.88
2023-05-23T03:33:17.061Z,99.72
2023-05-23T03:35:45.919Z,99.82
2023-05-23T03:38:13.839Z,106.68
2023-05-23T03:40:41.872Z,93.65
2023-05-23T03:43:10.576Z,101.18
2023-05-23T03:45:38.904Z,100.50
2023-05-23T03:48:08.862Z,111.18
2023-05-23T03:50:36.835Z,110.85
2023-05-23T03:53:04.795Z,112.78
2023-05-23T03:55:33.065Z,113.97
2023-05-23T03:58:01.235Z,101.65
2023-05-23T04:00:29.240Z,111.65
2023-05-23T04:02:57.345Z,101.40
2023-05-23T04:05:26.938Z,113.85
2023-05-23T04:07:54.895Z,109.57
2023-05-23T04:10:22.885Z,108.78
2023-05-23T04:12:51.659Z,118.85
2023-05-23T04:15:21.449Z,107.72
2023-05-23T04:17:49.577Z,112.72
2023-05-23T04:20:18.098Z,107.90
2023-05-23T04:22:47.469Z,108.70
2023-05-23T04:25:18.142Z,118.10
2023-05-23T04:27:47.319Z,111.18
2023-05-23T04:30:18.106Z,113.07
2023-05-23T04:32:47.456Z,114.60
2023-05-23T04:35:15.602Z,115.30
2023-05-23T04:37:45.487Z,108.72
2023-05-23T04:40:16.174Z,105.60
2023-05-23T04:42:44.741Z,107.03
2023-05-23T04:45:13.092Z,102.50
2023-05-23T04:47:42.046Z,110.28
2023-05-23T04:50:10.967Z,105.43
2023-05-23T04:52:38.987Z,108.35
2023-05-23T04:55:08.661Z,115.82
2023-05-23T04:57:38.342Z,116.97
2023-05-23T05:00:10.597Z,111.38
2023-05-23T05:02:38.952Z,114.80
2023-05-23T05:05:07.886Z,108.38
2023-05-23T05:07:36.988Z,110.22
2023-05-23T05:10:05.677Z,110.38
2023-05-23T05:12:34.462Z,109.10
2023-05-23T05:15:04.802Z,103.07
2023-05-23T05:17:36.955Z,106.97
2023-05-23T05:20:08.506Z,110.82
2023-05-23T05:22:36.951Z,97.22
2023-05-23T05:25:07.293Z,102.07
2023-05-23T05:27:37.847Z,99.93
2023-05-23T05:30:09.265Z,102.78
2023-05-23T05:32:37.496Z,99.22
2023-05-23T05:35:07.799Z,99.55
2023-05-23T05:37:35.838Z,104.82
2023-05-23T05:40:07.468Z,97.43
2023-05-23T05:42:35.653Z,92.13
2023-05-23T05:45:03.729Z,93.38
2023-05-23T05:47:33.195Z,100.57
2023-05-23T05:50:01.650Z,97.05
2023-05-23T05:52:29.719Z,96.40
2023-05-23T05:54:57.855Z,89.63
2023-05-23T05:57:25.828Z,96.47
2023-05-23T05:59:53.777Z,89.97
2023-05-23T06:02:22.242Z,85.93
2023-05-23T06:04:51.704Z,85.47
2023-05-23T06:07:19.850Z,88.60
2023-05-23T06:09:47.870Z,86.75
2023-05-23T06:12:16.002Z,87.18
2023-05-23T06:14:44.257Z,88.90
2023-05-23T06:17:13.011Z,82.70
2023-05-23T06:19:41.932Z,84.72
2023-05-23T06:22:11.272Z,79.75
2023-05-23T06:24:39.366Z,87.32
2023-05-23T06:27:07.528Z,81.93
2023-05-23T06:29:36.934Z,80.53
2023-05-23T06:32:05.662Z,81.10
2023-05-23T06:34:33.825Z,82.93
2023-05-23T06:37:01.857Z,78.15
2023-05-23T06:39:31.304Z,80.35
2023-05-23T06:41:59.357Z,83.55
2023-05-23T06:44:27.392Z,79.97
2023-05-23T06:46:57.548Z,79.70
2023-05-23T06:49:25.852Z,75.22
2023-05-23T06:51:54.027Z,78.93
2023-05-23T06:54:22.354Z,77.72
2023-05-23T06:56:51.794Z,72.13
2023-05-23T06:59:20.693Z,67.15
2023-05-23T07:01:48.851Z,75.45
2023-05-23T07:04:17.136Z,74.05
2023-05-23T07:06:47.547Z,73.35
2023-05-23T07:09:15.726Z,74.53
2023-05-23T07:11:43.749Z,76.05
2023-05-23T07:14:13.089Z,79.70
2023-05-23T07:16:41.125Z,76.15
2023-05-23T07:19:09.343Z,71.53
2023-05-23T07:21:37.425Z,76.50
2023-05-23T07:24:05.559Z,73.28
2023-05-23T07:26:33.567Z,71.93
2023-05-23T07:29:01.626Z,73.30
2023-05-23T07:31:32.417Z,73.85
2023-05-23T07:34:00.451Z,70.57
2023-05-23T07:36:29.549Z,74.03
2023-05-23T07:38:57.629Z,74.43
2023-05-23T07:41:25.680Z,73.38
2023-05-23T07:43:53.627Z,72.90
2023-05-23T07:46:22.992Z,70.55
2023-05-23T07:48:52.496Z,69.35
2023-05-23T07:51:22.014Z,72.70
2023-05-23T07:53:50.021Z,72.40
2023-05-23T07:56:18.426Z,75.40
2023-05-23T07:58:46.490Z,69.13
2023-05-23T08:01:14.472Z,67.10
2023-05-23T08:03:42.530Z,67.07
2023-05-23T08:06:11.863Z,69.55
2023-05-23T08:08:39.986Z,70.85
2023-05-23T08:11:08.030Z,69.35
2023-05-23T08:13:36.220Z,74.97
2023-05-23T08:16:04.288Z,74.60
2023-05-23T08:18:32.361Z,69.35
2023-05-23T08:21:03.089Z,68.80
2023-05-23T08:23:32.762Z,66.30
2023-05-23T08:26:00.825Z,64.05
2023-05-23T08:28:28.858Z,60.72
2023-05-23T08:30:58.262Z,57.10
2023-05-23T08:33:26.316Z,57.85
2023-05-23T08:35:54.289Z,61.42
2023-05-23T08:38:22.356Z,60.17
2023-05-23T08:40:53.191Z,59.35
2023-05-23T08:43:21.551Z,60.67
2023-05-23T08:45:52.859Z,59.65
2023-05-23T08:48:21.948Z,61.65
2023-05-23T08:50:52.137Z,66.72
2023-05-23T08:53:24.232Z,67.22
2023-05-23T08:55:55.743Z,66.97
2023-05-23T08:58:29.241Z,62.08
2023-05-23T09:00:57.580Z,64.80
2023-05-23T09:03:27.639Z,68.07
2023-05-23T09:05:56.335Z,61.67
2023-05-23T09:08:25.557Z,70.75
2023-05-23T09:10:56.498Z,64.28
2023-05-23T09:13:25.880Z,65.63
2023-05-23T09:16:04.472Z,57.13
2023-05-23T09:18:36.050Z,57.33
2023-05-23T09:21:04.558Z,57.20
2023-05-23T09:23:33.414Z,58.47
2023-05-23T09:26:05.336Z,57.40
2023-05-23T09:28:38.196Z,52.30
2023-05-23T09:31:07.790Z,49.33
2023-05-23T09:33:40.881Z,51.50
2023-05-23T09:36:09.211Z,50.28
2023-05-23T09:38:39.641Z,46.67
2023-05-23T09:41:12.161Z,45.67
2023-05-23T09:43:40.421Z,47.47
2023-05-23T09:46:10.345Z,50.72
2023-05-23T09:48:38.589Z,50.75
2023-05-23T09:51:07.269Z,45.00
2023-05-23T09:53:35.349Z,68.65
2023-05-23T09:56:05.186Z,39.97
2023-05-23T09:58:36.428Z,44.00
2023-05-23T10:01:06.920Z,35.83
2023-05-23T10:03:38.441Z,36.08
2023-05-23T10:06:10.516Z,34.83
2023-05-23T10:08:43.985Z,38.53
2023-05-23T10:11:50.986Z,37.38
2023-05-23T10:14:20.622Z,39.70
2023-05-23T10:17:02.757Z,37.58
2023-05-23T10:19:39.788Z,38.22
2023-05-23T10:22:11.273Z,38.25
2023-05-23T10:24:39.801Z,37.45
2023-05-23T10:27:08.540Z,38.15
2023-05-23T10:29:38.724Z,35.22
2023-05-23T10:32:08.577Z,36.22
2023-05-23T10:34:43.123Z,38.33
2023-05-23T10:37:18.716Z,34.92
2023-05-23T10:40:00.374Z,33.55
2023-05-23T10:42:42.777Z,35.58
2023-05-23T10:45:19.842Z,31.38
2023-05-23T10:47:49.287Z,27.92
2023-05-23T10:50:32.930Z,28.40
2023-05-23T10:53:03.149Z,26.58
2023-05-23T10:55:33.750Z,27.70
2023-05-23T10:58:12.302Z,25.45
2023-05-23T11:00:52.536Z,24.60
2023-05-23T11:03:20.951Z,26.60
2023-05-23T11:05:53.764Z,25.73
2023-05-23T11:08:22.459Z,24.80
2023-05-23T11:10:57.336Z,26.80
2023-05-23T11:13:25.439Z,23.95
2023-05-23T11:15:54.865Z,23.77
2023-05-23T11:18:24.929Z,25.90
2023-05-23T11:20:54.750Z,25.00
2023-05-23T11:23:23.739Z,26.05
2023-05-23T11:25:53.847Z,22.98
2023-05-23T11:28:22.082Z,22.42
2023-05-23T11:30:51.131Z,22.20
2023-05-23T11:33:21.327Z,22.52
2023-05-23T11:35:51.854Z,22.63
2023-05-23T11:38:20.700Z,19.40
2023-05-23T11:40:50.398Z,22.05
2023-05-23T11:43:19.741Z,21.15
2023-05-23T11:45:48.070Z,17.73
2023-05-23T11:48:17.726Z,20.42
2023-05-23T11:50:49.375Z,19.70
2023-05-23T11:53:21.111Z,17.70
2023-05-23T11:55:53.261Z,20.45
2023-05-23T11:58:22.812Z,19.85
2023-05-23T12:00:52.869Z,18.05
2023-05-23T12:03:22.847Z,20.25
2023-05-23T12:05:52.393Z,16.77
2023-05-23T12:08:20.828Z,16.45
2023-05-23T12:10:53.959Z,16.95
2023-05-23T12:13:24.736Z,19.05
2023-05-23T12:15:56.268Z,15.95
2023-05-23T12:18:24.764Z,16.08
2023-05-23T12:20:54.675Z,13.70
2023-05-23T12:23:23.351Z,15.60
2023-05-23T12:25:53.089Z,16.85
2023-05-23T12:28:21.785Z,15.57
2023-05-23T12:30:49.806Z,15.07
2023-05-23T12:33:20.775Z,16.23
2023-05-23T12:35:48.862Z,12.70
2023-05-23T12:38:18.551Z,13.93
2023-05-23T12:40:46.635Z,12.38
2023-05-23T12:43:16.912Z,12.73
2023-05-23T12:45:44.988Z,13.38
2023-05-23T12:48:13.161Z,11.52
2023-05-23T12:50:46.593Z,11.95
2023-05-23T12:53:14.806Z,11.90
2023-05-23T12:55:44.273Z,16.50
2023-05-23T12:58:12.304Z,17.40
2023-05-23T13:00:40.361Z,12.55
2023-05-23T13:03:08.461Z,16.33
2023-05-23T13:05:36.618Z,12.38
2023-05-23T13:08:04.662Z,13.60
2023-05-23T13:10:32.952Z,12.63
2023-05-23T13:13:02.540Z,12.25
2023-05-23T13:15:30.961Z,13.27
2023-05-23T13:17:59.106Z,14.40
2023-05-23T13:20:30.211Z,14.75
2023-05-23T13:22:58.859Z,14.73
2023-05-23T13:25:27.828Z,15.70
2023-05-23T13:27:57.671Z,13.55
2023-05-23T13:30:27.132Z,12.90
2023-05-23T13:32:55.267Z,15.15
2023-05-23T13:35:23.586Z,13.25
2023-05-23T13:37:51.899Z,10.98
2023-05-23T13:40:21.464Z,15.23
2023-05-23T13:42:51.663Z,9.90
2023-05-23T13:45:22.513Z,13.20
2023-05-23T13:47:52.428Z,9.45
2023-05-23T13:50:20.734Z,13.82
2023-05-23T13:52:49.664Z,12.32
2023-05-23T13:55:20.040Z,9.57
2023-05-23T13:57:48.387Z,9.70
2023-05-23T14:00:17.492Z,10.35
2023-05-23T14:02:45.582Z,10.25
2023-05-23T14:05:15.632Z,9.30
2023-05-23T14:07:47.267Z,8.93
2023-05-23T14:10:17.322Z,8.15
2023-05-23T14:12:45.494Z,10.23
2023-05-23T14:15:13.800Z,8.50
2023-05-23T14:17:41.928Z,8.35
2023-05-23T14:20:10.527Z,8.07
2023-05-23T14:22:40.420Z,8.00
2023-05-23T14:25:09.171Z,11.07
2023-05-23T14:27:40.225Z,8.38
2023-05-23T14:30:09.628Z,9.43
2023-05-23T14:32:39.142Z,9.15
2023-05-23T14:35:08.572Z,8.73
2023-05-23T14:37:36.867Z,8.98
2023-05-23T14:40:07.129Z,8.00
2023-05-23T14:42:35.191Z,8.68
2023-05-23T14:45:03.296Z,11.85
2023-05-23T14:47:32.079Z,8.25
2023-05-23T14:50:00.130Z,8.73
2023-05-23T14:52:28.343Z,8.48
2023-05-23T14:54:56.411Z,8.52
2023-05-23T14:57:25.823Z,8.05
2023-05-23T14:59:53.871Z,6.75
2023-05-23T15:02:22.086Z,7.60
2023-05-23T15:04:50.089Z,8.80
2023-05-23T15:07:18.461Z,10.13
2023-05-23T15:09:47.789Z,6.40
2023-05-23T15:12:16.300Z,7.10
2023-05-23T15:14:45.671Z,7.00
2023-05-23T15:17:19.727Z,6.82
2023-05-23T15:19:47.917Z,7.03
2023-05-23T15:22:30.219Z,8.05
2023-05-23T15:25:04.696Z,9.13
2023-05-23T15:27:32.692Z,10.13
2023-05-23T15:30:02.528Z,6.80
2023-05-23T15:32:30.714Z,5.82
2023-05-23T15:35:01.065Z,6.25
2023-05-23T15:37:29.053Z,6.82
2023-05-23T15:39:57.050Z,6.63
2023-05-23T15:42:25.093Z,7.72
2023-05-23T15:44:53.126Z,7.15
2023-05-23T15:47:22.588Z,5.53
2023-05-23T15:49:51.290Z,5.88
2023-05-23T15:52:19.308Z,6.22
2023-05-23T15:54:47.280Z,5.68
2023-05-23T15:57:15.273Z,5.63
2023-05-23T15:59:43.287Z,7.03
2023-05-23T16:02:11.464Z,6.18
2023-05-23T16:04:41.676Z,5.68
2023-05-23T16:07:09.755Z,6.82
2023-05-23T16:09:37.855Z,7.53
2023-05-23T16:12:06.536Z,6.72
2023-05-23T16:14:34.561Z,5.32
2023-05-23T16:17:05.013Z,5.47
2023-05-23T16:19:33.594Z,8.20
2023-05-23T16:22:03.386Z,7.45
2023-05-23T16:24:31.416Z,8.15
2023-05-23T16:27:01.321Z,6.95
2023-05-23T16:29:29.374Z,6.07
2023-05-23T16:31:57.624Z,7.13
2023-05-23T16:34:25.913Z,5.95
2023-05-23T16:36:53.953Z,5.30
2023-05-23T16:39:23.353Z,5.35
2023-05-23T16:41:51.609Z,5.68
2023-05-23T16:44:19.651Z,6.97
2023-05-23T16:46:47.930Z,7.90
2023-05-23T16:49:16.220Z,4.97
2023-05-23T16:51:45.354Z,4.85
2023-05-23T16:54:15.287Z,5.43
2023-05-23T16:56:44.882Z,5.15
2023-05-23T16:59:12.962Z,7.20
2023-05-23T17:01:41.485Z,8.60
2023-05-23T17:04:09.608Z,6.70
2023-05-23T17:06:38.068Z,6.60
2023-05-23T17:09:06.325Z,6.13
2023-05-23T17:11:34.313Z,7.95
2023-05-23T17:14:03.734Z,6.80
2023-05-23T17:16:33.552Z,6.82
2023-05-23T17:19:01.979Z,6.65
2023-05-23T17:21:30.035Z,6.65
2023-05-23T17:23:58.085Z,11.40
2023-05-23T17:26:27.189Z,8.48
2023-05-23T17:28:55.290Z,9.02
2023-05-23T17:31:24.726Z,10.52
2023-05-23T17:33:52.820Z,10.95
2023-05-23T17:36:20.969Z,10.43
2023-05-23T17:38:49.258Z,8.65
2023-05-23T17:41:17.578Z,8.80
2023-05-23T17:43:45.728Z,9.27
2023-05-23T17:46:14.004Z,9.23
2023-05-23T17:48:47.743Z,8.98
2023-05-23T17:51:16.826Z,11.27
2023-05-23T17:53:45.037Z,11.68
2023-05-23T17:56:13.197Z,11.88
2023-05-23T17:58:44.592Z,9.73
2023-05-23T18:01:13.558Z,15.10
2023-05-23T18:03:43.639Z,10.02
2023-05-23T18:06:11.682Z,9.75
2023-05-23T18:08:39.654Z,11.23
2023-05-23T18:11:07.944Z,10.93
2023-05-23T18:13:35.944Z,10.32
2023-05-23T18:16:04.005Z,11.82
2023-05-23T18:18:32.505Z,12.15
2023-05-23T18:21:01.959Z,15.10
2023-05-23T18:23:29.989Z,14.02
2023-05-23T18:25:58.108Z,12.15
2023-05-23T18:28:26.352Z,12.32
2023-05-23T18:30:54.480Z,11.18
2023-05-23T18:33:22.708Z,10.82
2023-05-23T18:35:51.537Z,11.18
2023-05-23T18:38:20.915Z,10.70
2023-05-23T18:40:48.982Z,10.82
2023-05-23T18:43:17.541Z,10.38
2023-05-23T18:45:45.748Z,11.00
2023-05-23T18:48:14.660Z,12.07
2023-05-23T18:50:42.954Z,11.55
2023-05-23T18:53:11.325Z,12.77
2023-05-23T18:55:40.828Z,9.75
2023-05-23T18:58:08.897Z,9.18
2023-05-23T19:00:37.533Z,12.25
2023-05-23T19:03:05.844Z,11.40
2023-05-23T19:05:33.977Z,8.90
2023-05-23T19:08:03.318Z,9.00
2023-05-23T19:10:31.342Z,9.45
2023-05-23T19:13:00.743Z,5.65
2023-05-23T19:15:28.812Z,7.32
2023-05-23T19:17:56.989Z,6.82
2023-05-23T19:20:25.032Z,5.63
2023-05-23T19:22:53.096Z,5.72
2023-05-23T19:25:21.584Z,8.13
2023-05-23T19:27:49.694Z,6.60
2023-05-23T19:30:19.379Z,4.68
2023-05-23T19:32:47.477Z,7.32
2023-05-23T19:35:16.868Z,5.30
2023-05-23T19:37:45.408Z,6.80
2023-05-23T19:40:14.488Z,3.95
2023-05-23T19:42:42.590Z,4.82
2023-05-23T19:45:11.787Z,3.38
2023-05-23T19:47:41.909Z,3.17
2023-05-23T19:50:11.919Z,3.63
2023-05-23T19:52:42.956Z,7.68
2023-05-23T19:55:11.278Z,4.03
2023-05-23T19:57:39.404Z,3.53
2023-05-23T20:00:09.804Z,4.45
2023-05-23T20:02:38.481Z,3.70
2023-05-23T20:05:09.546Z,3.60
2023-05-23T20:07:37.712Z,2.75
2023-05-23T20:10:06.618Z,2.72
2023-05-23T20:12:34.704Z,3.67
2023-05-23T20:15:03.508Z,2.70
2023-05-23T20:17:31.989Z,3.85
2023-05-23T20:19:59.953Z,3.15
2023-05-23T20:22:29.755Z,2.67
2023-05-23T20:24:57.819Z,2.47
2023-05-23T20:27:25.785Z,3.38
2023-05-23T20:29:53.895Z,4.88
2023-05-23T20:32:21.971Z,3.50
2023-05-23T20:34:50.016Z,2.38
2023-05-23T20:37:18.205Z,6.43
2023-05-23T20:39:48.479Z,2.88
2023-05-23T20:42:16.618Z,5.28
2023-05-23T20:44:44.734Z,3.50
2023-05-23T20:47:13.457Z,4.05
2023-05-23T20:49:42.365Z,2.58
2023-05-23T20:52:10.519Z,4.03
2023-05-23T20:54:40.537Z,3.28
2023-05-23T20:57:10.605Z,4.32
2023-05-23T20:59:38.567Z,4.80
2023-05-23T21:02:07.937Z,3.38
2023-05-23T21:04:36.027Z,4.07
2023-05-23T21:07:04.185Z,4.45
2023-05-23T21:09:32.227Z,2.78
2023-05-23T21:12:00.463Z,4.75
2023-05-23T21:14:29.827Z,3.08
2023-05-23T21:16:57.887Z,2.85
2023-05-23T21:19:26.074Z,3.65
2023-05-23T21:21:56.101Z,3.88
2023-05-23T21:24:25.308Z,3.40
2023-05-23T21:26:53.546Z,4.05
2023-05-23T21:29:21.606Z,3.88
2023-05-23T21:31:51.056Z,4.25
2023-05-23T21:34:23.654Z,3.92
2023-05-23T21:36:52.381Z,3.40
2023-05-23T21:39:20.573Z,7.70
2023-05-23T21:41:48.530Z,3.83
2023-05-23T21:44:18.784Z,4.93
2023-05-23T21:46:47.294Z,5.15
2023-05-23T21:49:17.118Z,4.32
2023-05-23T21:51:45.248Z,4.43
2023-05-23T21:54:13.370Z,4.35
2023-05-23T21:56:42.691Z,5.28
2023-05-23T21:59:11.129Z,4.78
2023-05-23T22:01:41.877Z,5.55
2023-05-23T22:04:10.245Z,5.47
2023-05-23T22:06:39.697Z,4.32
2023-05-23T22:09:10.208Z,7.13
2023-05-23T22:11:39.932Z,5.63
2023-05-23T22:14:07.990Z,5.85
2023-05-23T22:16:40.241Z,6.40
2023-05-23T22:19:10.058Z,5.65
2023-05-23T22:21:39.845Z,4.88
2023-05-23T22:24:08.248Z,8.05
2023-05-23T22:26:39.179Z,5.63
2023-05-23T22:29:09.365Z,5.78
2023-05-23T22:31:37.519Z,5.03
2023-05-23T22:34:05.638Z,5.20
2023-05-23T22:36:34.382Z,6.22
2023-05-23T22:39:05.427Z,6.55
2023-05-23T22:41:34.537Z,5.63
2023-05-23T22:44:02.980Z,5.38
2023-05-23T22:46:31.041Z,6.63
2023-05-23T22:49:00.367Z,10.43
2023-05-23T22:51:29.281Z,5.53
2023-05-23T22:53:57.287Z,5.80
2023-05-23T22:56:27.028Z,7.55
2023-05-23T22:58:57.124Z,5.65
2023-05-23T23:01:25.108Z,5.88
2023-05-23T23:03:53.145Z,8.55
2023-05-23T23:06:21.186Z,4.97
2023-05-23T23:08:49.937Z,5.53
2023-05-23T23:11:17.959Z,5.50
2023-05-23T23:13:47.358Z,6.18
2023-05-23T23:16:15.403Z,6.13
2023-05-23T23:18:43.418Z,10.40
2023-05-23T23:21:11.486Z,8.60
2023-05-23T23:23:39.527Z,8.07
2023-05-23T23:26:07.653Z,5.45
2023-05-23T23:28:35.807Z,5.50
2023-05-23T23:31:05.277Z,6.15
2023-05-23T23:33:33.263Z,5.18
2023-05-23T23:36:01.344Z,7.28
2023-05-23T23:38:29.366Z,5.63
2023-05-23T23:40:57.421Z,6.32
2023-05-23T23:43:25.490Z,6.25
2023-05-23T23:45:53.602Z,6.72
2023-05-23T23:48:23.270Z,5.85
2023-05-23T23:50:51.326Z,5.28
2023-05-23T23:53:21.419Z,6.57
2023-05-23T23:55:49.762Z,5.95
2023-05-23T23:58:18.123Z,6.95
